Time;durP1;ratioP1;P1;durP2;ratioP2;P2;SDS_P1;SDS_P2;PMS_P1;PMS_P2;Temp;Humidity;BMP_temperature;BMP_pressure;BME280_temperature;BME280_humidity;BME280_pressure;Samples;Min_cycle;Max_cycle;Signal;HPM_P1;HPM_P2
2023/09/23 00:00:40;;;;;;;13.95;6.95;;;;;;;-145.63;42.62;39059.44;5013883;28;20085;-64
2023/09/23 00:03:08;;;;;;;13.25;7.28;;;;;;;-145.63;43.13;39055.53;5025429;28;20507;-64
2023/09/23 00:05:36;;;;;;;10.05;7.88;;;;;;;-145.63;42.48;39051.63;5011615;28;20046;-65
2023/09/23 00:08:02;;;;;;;13.77;8.48;;;;;;;-145.63;42.02;39063.34;5016760;28;20274;-64
2023/09/23 00:10:29;;;;;;;13.75;8.32;;;;;;;-145.63;42.86;39061.41;5020452;28;20058;-64
2023/09/23 00:12:55;;;;;;;14.45;9.23;;;;;;;-145.63;42.64;39045.75;5006083;28;20030;-65
2023/09/23 00:15:21;;;;;;;14.18;9.30;;;;;;;-145.63;42.54;39065.31;5006279;28;20049;-64
2023/09/23 00:17:48;;;;;;;15.65;8.80;;;;;;;-145.63;43.30;39037.94;5022699;28;20049;-63
2023/09/23 00:20:16;;;;;;;11.35;7.82;;;;;;;-145.63;43.00;39047.72;5015113;28;20032;-64
2023/09/23 00:22:46;;;;;;;9.18;7.32;;;;;;;-145.63;43.52;39024.25;5036590;28;20088;-64
2023/09/23 00:25:13;;;;;;;13.95;8.02;;;;;;;-145.63;43.20;39059.44;5021821;28;20021;-64
2023/09/23 00:27:41;;;;;;;15.27;8.38;;;;;;;-145.63;43.48;39035.97;5006720;28;20054;-64
2023/09/23 00:30:08;;;;;;;14.52;7.70;;;;;;;-145.63;43.68;39053.59;5006203;28;20105;-64
2023/09/23 00:32:33;;;;;;;10.25;8.52;;;;;;;-145.63;43.59;39047.72;5020386;28;20026;-63
2023/09/23 00:34:59;;;;;;;15.70;9.18;;;;;;;-145.63;43.29;39086.81;5015743;28;20303;-64
2023/09/23 00:37:27;;;;;;;16.38;9.93;;;;;;;-145.63;42.92;39075.09;5011076;28;20040;-63
2023/09/23 00:39:53;;;;;;;12.48;8.20;;;;;;;-145.63;43.84;39092.69;5025546;28;20034;-65
2023/09/23 00:42:19;;;;;;;12.52;8.32;;;;;;;-145.63;43.99;39055.53;5025564;28;20033;-64
2023/09/23 00:44:45;;;;;;;14.48;9.32;;;;;;;-145.63;43.62;39098.56;5009759;28;20029;-64
2023/09/23 00:47:13;;;;;;;16.40;9.48;;;;;;;-145.63;43.76;39174.84;5005749;28;20041;-64
2023/09/23 00:49:44;;;;;;;12.73;9.02;;;;;;;-145.63;43.49;39037.94;5012629;28;20059;-63
2023/09/23 00:52:14;;;;;;;16.23;9.38;;;;;;;-145.63;44.09;39071.19;5022348;28;20053;-64
2023/09/23 00:54:45;;;;;;;9.95;8.73;;;;;;;-145.63;44.37;39084.88;5005837;28;20077;-64
2023/09/23 00:57:12;;;;;;;19.45;10.20;;;;;;;-145.63;43.43;39106.38;5024616;28;20333;-64
2023/09/23 00:59:40;;;;;;;15.50;8.90;;;;;;;-145.63;44.38;39059.44;5010332;28;20031;-64
2023/09/23 01:02:06;;;;;;;11.68;8.68;;;;;;;-145.63;44.33;39077.06;5041545;28;20037;-65
2023/09/23 01:04:33;;;;;;;16.08;9.38;;;;;;;-145.63;44.93;39094.66;5039346;28;20022;-65
2023/09/23 01:07:01;;;;;;;17.98;9.15;;;;;;;-145.63;44.64;39079.00;5022254;28;20085;-64
2023/09/23 01:09:27;;;;;;;14.57;10.52;;;;;;;-145.63;43.70;39108.34;5005391;28;20290;-63
2023/09/23 01:11:53;;;;;;;13.40;9.57;;;;;;;-145.63;44.19;39092.69;5020313;28;20039;-64
2023/09/23 01:14:21;;;;;;;15.48;9.90;;;;;;;-145.63;44.10;39094.66;5030522;28;20025;-64
2023/09/23 01:16:51;;;;;;;19.42;12.30;;;;;;;-145.63;43.97;39112.25;5036942;28;20048;-65
2023/09/23 01:19:22;;;;;;;18.25;11.88;;;;;;;-145.63;43.86;39102.47;5021382;28;20379;-64
2023/09/23 01:21:50;;;;;;;14.27;9.45;;;;;;;-145.63;44.54;39092.69;5005108;28;20034;-65
2023/09/23 01:24:17;;;;;;;16.38;12.40;;;;;;;-145.63;43.68;39086.81;5024781;28;20097;-64
2023/09/23 01:26:51;;;;;;;19.60;13.65;;;;;;;-145.63;43.93;39110.28;5009553;28;20050;-64
2023/09/23 01:29:18;;;;;;;17.13;11.65;;;;;;;-145.63;44.00;39106.38;5016497;28;20163;-64
2023/09/23 01:32:04;;;;;;;19.08;12.77;;;;;;;-145.63;43.90;39116.16;5017377;28;20037;-64
2023/09/23 01:34:30;;;;;;;18.77;12.80;;;;;;;-145.63;44.06;39088.78;5009757;28;20072;-64
2023/09/23 01:36:56;;;;;;;18.05;13.20;;;;;;;-145.63;44.16;39110.28;5022758;28;20037;-63
2023/09/23 01:39:23;;;;;;;23.80;13.82;;;;;;;-145.63;44.15;39133.75;5004590;28;20341;-64
2023/09/23 01:41:49;;;;;;;17.20;11.85;;;;;;;-145.63;44.67;39135.72;5020321;28;20302;-64
2023/09/23 01:44:16;;;;;;;17.15;12.05;;;;;;;-145.63;44.65;39108.34;5012855;28;20026;-65
2023/09/23 01:46:42;;;;;;;16.77;13.38;;;;;;;-145.63;44.58;39110.28;5004621;28;20026;-64
2023/09/23 01:49:08;;;;;;;21.08;12.23;;;;;;;-145.63;45.03;39118.13;5006411;28;20046;-63
2023/09/23 01:51:34;;;;;;;19.13;12.98;;;;;;;-145.63;44.98;39069.22;5024330;28;20029;-64
2023/09/23 01:54:00;;;;;;;16.20;12.18;;;;;;;-145.63;45.22;39123.97;5005742;28;20033;-63
2023/09/23 01:56:26;;;;;;;20.27;12.88;;;;;;;-145.63;45.16;39090.75;5016981;28;20235;-64
2023/09/23 01:58:51;;;;;;;14.57;11.68;;;;;;;-145.63;45.15;39116.16;5016223;28;20037;-65
2023/09/23 02:01:17;;;;;;;16.92;11.60;;;;;;;-145.63;45.26;39118.13;5016641;28;20034;-64
2023/09/23 02:03:43;;;;;;;17.80;13.43;;;;;;;-145.63;45.58;39141.59;5024030;28;20194;-62
2023/09/23 02:06:09;;;;;;;18.63;13.00;;;;;;;-145.63;45.42;39110.28;5005692;28;20026;-64
2023/09/23 02:08:35;;;;;;;21.38;13.10;;;;;;;-145.63;45.68;39141.59;5017824;28;20298;-64
2023/09/23 02:11:00;;;;;;;17.42;12.48;;;;;;;-145.63;45.52;39106.38;5014925;28;20030;-65
2023/09/23 02:13:28;;;;;;;17.60;12.38;;;;;;;-145.63;45.39;39118.13;5008717;28;20037;-64
2023/09/23 02:15:55;;;;;;;22.92;12.82;;;;;;;-145.63;45.31;39112.25;5023947;28;20025;-64
2023/09/23 02:18:22;;;;;;;17.55;12.07;;;;;;;-145.63;45.76;39133.75;5004122;28;20097;-65
2023/09/23 02:20:47;;;;;;;20.40;12.73;;;;;;;-145.63;45.94;39137.69;5019284;28;20033;-64
2023/09/23 02:23:14;;;;;;;18.73;12.73;;;;;;;-145.63;45.68;39159.19;5013061;28;20206;-64
2023/09/23 02:25:40;;;;;;;19.80;12.35;;;;;;;-145.63;45.37;39129.84;5010342;28;20026;-65
2023/09/23 02:28:05;;;;;;;17.40;12.13;;;;;;;-145.63;45.56;39155.28;5022209;28;20034;-65
2023/09/23 02:30:32;;;;;;;16.25;11.88;;;;;;;-145.63;45.86;39133.75;5004120;28;20303;-64
2023/09/23 02:32:58;;;;;;;15.50;12.23;;;;;;;-145.63;46.06;39129.84;5020566;28;20064;-64
2023/09/23 02:35:25;;;;;;;18.02;13.10;;;;;;;-145.63;45.48;39141.59;5011688;28;20033;-64
2023/09/23 02:37:51;;;;;;;16.77;12.38;;;;;;;-145.63;45.98;39141.59;5011404;28;20021;-64
2023/09/23 02:40:17;;;;;;;19.02;11.07;;;;;;;-145.63;46.13;39129.84;5023736;28;20034;-64
2023/09/23 02:42:47;;;;;;;16.23;11.63;;;;;;;-145.63;46.19;39180.69;5023490;28;20336;-64
2023/09/23 02:45:16;;;;;;;19.38;12.65;;;;;;;-145.63;46.27;39145.50;5021488;28;20136;-63
2023/09/23 02:47:46;;;;;;;17.10;11.93;;;;;;;-145.63;46.08;39135.72;5016539;28;20056;-64
2023/09/23 02:50:13;;;;;;;19.98;13.05;;;;;;;-145.63;45.63;39168.97;5013401;28;20026;-64
2023/09/23 02:52:41;;;;;;;21.15;14.57;;;;;;;-145.63;45.49;39149.41;5009266;28;20022;-63
2023/09/23 02:55:12;;;;;;;19.08;13.05;;;;;;;-145.63;45.58;39145.50;5030582;28;20033;-63
2023/09/23 02:57:40;;;;;;;19.17;13.60;;;;;;;-145.63;45.51;39153.31;5023027;28;20080;-65
2023/09/23 03:00:40;;;;;;;18.95;13.55;;;;;;;-145.63;45.26;39149.41;5007754;28;20057;-63
2023/09/23 03:03:01;;;;;;;17.27;12.23;;;;;;;-145.63;45.43;39155.28;5026122;28;20048;-63
2023/09/23 03:05:31;;;;;;;15.52;12.32;;;;;;;-145.63;45.18;39131.81;5030938;28;20258;-64
2023/09/23 03:07:58;;;;;;;19.33;12.52;;;;;;;-145.63;45.47;39151.38;5022956;28;20030;-64
2023/09/23 03:10:32;;;;;;;16.20;12.60;;;;;;;-145.63;45.51;39149.41;5019712;28;20030;-64
2023/09/23 03:13:07;;;;;;;17.80;11.60;;;;;;;-145.63;45.21;39168.97;5003616;28;20038;-64
2023/09/23 03:15:46;;;;;;;17.20;11.50;;;;;;;-145.63;45.19;39141.59;5004003;28;20026;-66
2023/09/23 03:18:15;;;;;;;17.83;12.20;;;;;;;-145.63;45.55;39145.50;5021677;28;20433;-65
2023/09/23 03:20:41;;;;;;;16.90;11.88;;;;;;;-145.63;45.60;39116.16;5009532;28;20034;-65
2023/09/23 03:23:10;;;;;;;14.88;11.70;;;;;;;-145.63;45.45;39167.00;5012426;28;20037;-64
2023/09/23 03:25:44;;;;;;;16.23;11.70;;;;;;;-145.63;45.49;39139.63;5025528;28;20032;-65
2023/09/23 03:28:10;;;;;;;15.45;10.75;;;;;;;-145.63;45.17;39159.19;5021618;28;20030;-64
2023/09/23 03:30:36;;;;;;;17.35;11.05;;;;;;;-145.63;45.26;39163.09;5003625;28;20022;-64
2023/09/23 03:33:04;;;;;;;17.80;10.80;;;;;;;-145.63;45.79;39159.19;5019666;28;20022;-64
2023/09/23 03:35:35;;;;;;;17.30;11.00;;;;;;;-145.63;45.26;39153.31;5010824;28;20030;-65
2023/09/23 03:38:00;;;;;;;13.40;11.00;;;;;;;-145.63;45.37;39184.59;5011320;28;20076;-62
2023/09/23 03:40:27;;;;;;;13.93;11.48;;;;;;;-145.63;45.29;39141.59;5022659;28;20034;-65
2023/09/23 03:42:53;;;;;;;19.90;11.20;;;;;;;-145.63;44.96;39163.09;5022927;28;20254;-64
2023/09/23 03:45:19;;;;;;;23.77;11.25;;;;;;;-145.63;45.47;39123.97;5004214;28;20042;-64
2023/09/23 03:47:46;;;;;;;15.48;10.68;;;;;;;-145.63;45.25;39153.31;5003381;28;20026;-63
2023/09/23 03:50:13;;;;;;;16.48;10.80;;;;;;;-145.63;45.24;39143.53;5012934;28;20036;-63
2023/09/23 03:52:40;;;;;;;19.38;10.38;;;;;;;-145.63;45.30;39147.44;5016677;28;20026;-64
2023/09/23 03:55:08;;;;;;;17.27;10.85;;;;;;;-145.63;45.22;39155.28;5003755;28;20097;-65
2023/09/23 03:57:34;;;;;;;14.02;10.23;;;;;;;-145.63;45.23;39159.19;5022775;28;20069;-62
2023/09/23 04:00:00;;;;;;;18.35;11.25;;;;;;;-145.63;45.78;39129.84;5010716;28;20041;-62
2023/09/23 04:02:26;;;;;;;17.25;11.57;;;;;;;-145.63;46.39;39149.41;5025327;28;20093;-61
2023/09/23 04:04:53;;;;;;;14.68;10.63;;;;;;;-145.63;45.73;39167.00;5019247;28;20068;-63
2023/09/23 04:07:22;;;;;;;16.13;10.77;;;;;;;-145.63;45.42;39204.16;5006617;28;20346;-62
2023/09/23 04:09:48;;;;;;;16.30;10.80;;;;;;;-145.63;44.98;39149.41;5006476;28;20331;-64
2023/09/23 04:12:14;;;;;;;14.82;10.43;;;;;;;-145.63;45.11;39151.38;5024305;28;20097;-63
2023/09/23 04:14:39;;;;;;;14.40;10.15;;;;;;;-145.63;45.89;39170.91;5013283;28;20387;-64
2023/09/23 04:17:05;;;;;;;16.35;10.32;;;;;;;-145.63;45.24;39145.50;5014702;28;20046;-64
2023/09/23 04:19:31;;;;;;;16.48;10.35;;;;;;;-145.63;45.49;39129.84;5022044;28;20325;-64
2023/09/23 04:21:57;;;;;;;23.10;11.02;;;;;;;-145.63;45.46;39141.59;5006289;28;20321;-63
2023/09/23 04:24:23;;;;;;;15.60;10.52;;;;;;;-145.63;44.94;39159.19;5024982;28;20030;-64
2023/09/23 04:26:49;;;;;;;17.83;10.63;;;;;;;-145.63;45.75;39165.06;5011063;28;20042;-64
2023/09/23 04:29:19;;;;;;;13.90;9.80;;;;;;;-145.63;45.14;39168.97;5015853;28;20029;-65
2023/09/23 04:31:46;;;;;;;19.98;10.40;;;;;;;-145.63;45.60;39131.81;5020085;28;20313;-64
2023/09/23 04:34:13;;;;;;;13.13;10.13;;;;;;;-145.63;45.03;39157.22;5007015;28;20022;-63
2023/09/23 04:36:39;;;;;;;16.52;10.52;;;;;;;-145.63;45.06;39145.50;5025674;28;20104;-64
2023/09/23 04:39:06;;;;;;;17.17;10.18;;;;;;;-145.63;45.03;39145.50;5008829;28;20315;-63
2023/09/23 04:41:32;;;;;;;14.30;10.20;;;;;;;-145.63;45.00;39125.94;5017761;28;20088;-63
2023/09/23 04:43:58;;;;;;;13.88;10.13;;;;;;;-145.63;44.86;39098.56;5018158;28;20038;-63
2023/09/23 04:46:24;;;;;;;16.10;10.80;;;;;;;-145.63;44.65;39159.19;5006112;28;20097;-64
2023/09/23 04:48:50;;;;;;;14.68;10.15;;;;;;;-145.63;44.79;39120.06;5005639;28;20030;-64
2023/09/23 04:51:17;;;;;;;18.27;10.48;;;;;;;-145.63;44.78;39147.44;5023648;28;20040;-63
2023/09/23 04:53:43;;;;;;;15.35;10.55;;;;;;;-145.63;44.61;39118.13;5012249;28;20054;-63
2023/09/23 04:56:10;;;;;;;15.27;10.10;;;;;;;-145.63;45.01;39123.97;5014251;28;20025;-64
2023/09/23 04:58:36;;;;;;;19.48;11.00;;;;;;;-145.63;44.63;39133.75;5021080;28;20045;-64
2023/09/23 05:01:03;;;;;;;18.40;10.15;;;;;;;-145.63;44.55;39118.13;5015168;28;20029;-63
2023/09/23 05:03:29;;;;;;;17.38;10.82;;;;;;;-145.63;44.54;39123.97;5025211;28;20092;-62
2023/09/23 05:05:55;;;;;;;20.15;10.45;;;;;;;-145.63;44.81;39090.75;5010346;28;20225;-63
2023/09/23 05:08:21;;;;;;;16.02;10.52;;;;;;;-145.63;44.54;39086.81;5015694;28;20026;-63
2023/09/23 05:10:47;;;;;;;16.50;10.00;;;;;;;-145.63;44.23;39127.91;5019203;28;20033;-63
2023/09/23 05:13:17;;;;;;;15.82;11.02;;;;;;;-145.63;44.97;39071.19;5006126;28;20045;-62
2023/09/23 05:15:43;;;;;;;17.42;10.95;;;;;;;-145.63;44.13;39102.47;5025327;28;20026;-62
2023/09/23 05:18:08;;;;;;;15.18;10.23;;;;;;;-145.63;43.83;39090.75;5008343;28;20030;-62
2023/09/23 05:20:34;;;;;;;17.10;9.65;;;;;;;-145.63;43.97;39065.31;5016956;28;20093;-63
2023/09/23 05:23:04;;;;;;;14.18;9.27;;;;;;;-145.63;44.38;39059.44;5017353;28;20030;-63
2023/09/23 05:25:31;;;;;;;15.40;10.23;;;;;;;-145.63;43.13;39061.41;5025730;28;20045;-64
2023/09/23 05:27:57;;;;;;;16.95;10.32;;;;;;;-145.63;43.34;39051.63;5024966;28;20037;-62
2023/09/23 05:30:23;;;;;;;22.67;10.18;;;;;;;-145.63;42.50;39065.31;5006315;28;20105;-63
2023/09/23 05:32:49;;;;;;;21.63;11.18;;;;;;;-145.63;43.19;39053.59;5018488;28;20206;-63
2023/09/23 05:35:14;;;;;;;12.45;9.27;;;;;;;-145.63;42.55;39039.88;5015184;28;20093;-63
2023/09/23 05:37:41;;;;;;;17.67;10.63;;;;;;;-145.63;42.18;39028.16;5009414;28;20215;-62
2023/09/23 05:40:10;;;;;;;19.20;10.15;;;;;;;-145.63;42.29;39034.03;5024423;28;20029;-63
2023/09/23 05:42:36;;;;;;;16.77;11.07;;;;;;;-145.63;42.31;39037.94;5020442;28;20026;-63
2023/09/23 05:45:03;;;;;;;18.17;10.27;;;;;;;-145.63;42.36;39016.44;5022828;28;20032;-63
2023/09/23 05:47:31;;;;;;;13.07;9.95;;;;;;;-145.63;41.69;39016.44;5013516;28;20454;-64
2023/09/23 05:49:57;;;;;;;20.55;10.55;;;;;;;-145.63;41.64;38969.50;5011133;28;20041;-64
2023/09/23 05:52:23;;;;;;;22.88;10.75;;;;;;;-145.63;41.96;39039.88;5022078;28;20033;-63
2023/09/23 05:54:49;;;;;;;17.33;10.48;;;;;;;-145.63;41.23;38985.13;5004629;28;20034;-63
2023/09/23 05:57:15;;;;;;;20.55;10.45;;;;;;;-145.63;40.96;38998.81;5004887;28;20029;-63
2023/09/23 05:59:41;;;;;;;19.90;10.45;;;;;;;-145.63;40.58;38998.81;5016615;28;20033;-63
2023/09/23 06:02:08;;;;;;;16.52;10.35;;;;;;;-145.63;40.81;38889.31;5036914;28;20029;-64
2023/09/23 06:04:35;;;;;;;16.83;10.45;;;;;;;-145.63;40.41;38934.28;5023966;28;20037;-64
2023/09/23 06:07:01;;;;;;;18.00;10.38;;;;;;;-145.63;39.99;38906.91;5014300;28;20069;-63
2023/09/23 06:09:26;;;;;;;18.73;9.38;;;;;;;-145.63;40.15;38844.34;5024049;28;20064;-64
2023/09/23 06:11:53;;;;;;;20.33;10.82;;;;;;;-145.63;38.81;38830.66;5009981;28;20065;-64
2023/09/23 06:14:19;;;;;;;17.40;9.32;;;;;;;-145.63;39.05;38805.22;5013586;28;20022;-63
2023/09/23 06:16:45;;;;;;;16.15;8.60;;;;;;;-145.63;38.90;38822.81;5019328;28;20030;-63
2023/09/23 06:19:10;;;;;;;14.23;9.63;;;;;;;-145.63;38.36;38799.34;5004205;28;20037;-63
2023/09/23 06:21:36;;;;;;;21.08;9.45;;;;;;;-145.63;38.28;38787.63;5003785;28;20033;-64
2023/09/23 06:24:02;;;;;;;26.50;10.20;;;;;;;-145.63;38.02;38818.91;5019100;28;20186;-64
2023/09/23 06:26:28;;;;;;;18.60;9.57;;;;;;;-145.63;38.32;38768.06;5013639;28;20211;-65
2023/09/23 06:28:54;;;;;;;14.48;8.40;;;;;;;-145.63;37.88;38820.88;5004082;28;20038;-64
2023/09/23 06:31:20;;;;;;;14.25;9.18;;;;;;;-145.63;37.69;38773.94;5004961;28;20034;-63
2023/09/23 06:33:46;;;;;;;17.75;9.13;;;;;;;-145.63;37.76;38732.88;5023631;28;20094;-65
2023/09/23 06:36:11;;;;;;;31.73;9.73;;;;;;;-145.63;37.48;38699.63;5007196;28;20022;-64
2023/09/23 06:38:37;;;;;;;24.27;9.10;;;;;;;-145.63;36.39;38662.47;5015487;28;20021;-65
2023/09/23 06:41:02;;;;;;;19.92;9.20;;;;;;;-145.63;35.31;38631.19;5023071;28;20330;-64
2023/09/23 06:43:28;;;;;;;17.73;8.77;;;;;;;-145.63;36.11;38603.81;5021169;28;20030;-63
2023/09/23 06:45:58;;;;;;;17.20;8.70;;;;;;;-145.63;35.27;38644.88;5002523;28;20041;-65
2023/09/23 06:48:25;;;;;;;21.67;9.07;;;;;;;-145.63;34.79;38607.72;5003879;28;20033;-64
2023/09/23 06:50:56;;;;;;;20.00;9.00;;;;;;;-145.63;34.39;38521.69;5016958;28;20053;-64
2023/09/23 06:53:22;;;;;;;14.77;8.43;;;;;;;-145.63;33.91;38568.63;5013877;28;20266;-64
2023/09/23 06:55:48;;;;;;;17.48;8.77;;;;;;;-145.63;34.40;38562.75;5008377;28;20049;-64
2023/09/23 06:58:13;;;;;;;19.00;8.50;;;;;;;-145.63;34.47;38498.22;5023387;28;20041;-64
2023/09/23 07:00:39;;;;;;;17.13;8.35;;;;;;;-145.63;34.03;38590.13;5010488;28;20034;-64
2023/09/23 07:03:04;;;;;;;21.65;8.90;;;;;;;-145.63;33.64;38513.88;5023197;28;20026;-63
2023/09/23 07:05:30;;;;;;;19.15;10.38;;;;;;;-145.63;33.87;38539.28;5013207;28;20092;-65
2023/09/23 07:07:56;;;;;;;17.63;9.80;;;;;;;-145.63;33.66;38517.78;5009021;28;20030;-64
2023/09/23 07:10:21;;;;;;;16.73;8.63;;;;;;;-145.63;34.19;38511.91;5022226;28;20053;-63
2023/09/23 07:12:47;;;;;;;16.75;8.18;;;;;;;-145.63;34.09;38490.41;5003329;28;20219;-63
2023/09/23 07:15:13;;;;;;;12.98;8.05;;;;;;;-145.63;33.68;38486.50;5019339;28;20025;-65
2023/09/23 07:17:39;;;;;;;22.35;7.90;;;;;;;-145.63;33.43;38468.91;5029853;28;20029;-62
2023/09/23 07:20:05;;;;;;;16.02;7.50;;;;;;;-145.63;33.68;38476.72;5035873;28;20041;-65
2023/09/23 07:22:31;;;;;;;13.52;7.65;;;;;;;-145.63;32.98;38461.06;5023030;28;20042;-64
2023/09/23 07:24:56;;;;;;;19.50;7.68;;;;;;;-145.63;33.32;38457.16;5022906;28;20249;-65
2023/09/23 07:27:24;;;;;;;21.40;7.28;;;;;;;-145.63;33.19;38435.66;5005993;28;20045;-65
2023/09/23 07:29:50;;;;;;;13.27;7.35;;;;;;;-145.63;32.34;38472.81;5014967;28;20105;-65
2023/09/23 07:32:15;;;;;;;12.77;7.95;;;;;;;-145.63;32.93;38449.34;5014875;28;20236;-65
2023/09/23 07:34:41;;;;;;;11.95;7.07;;;;;;;-145.63;32.27;38412.19;5010393;28;20026;-64
2023/09/23 07:37:08;;;;;;;38.08;30.27;;;;;;;-145.63;33.41;38410.22;5026591;28;20033;-63
2023/09/23 07:39:33;;;;;;;13.50;7.50;;;;;;;-145.63;33.62;38402.41;5026987;28;20056;-64
2023/09/23 07:41:59;;;;;;;10.73;7.05;;;;;;;-145.63;31.74;38371.13;5026514;28;20026;-64
2023/09/23 07:44:24;;;;;;;19.13;7.13;;;;;;;-145.63;32.15;38408.28;5017266;28;20263;-65
2023/09/23 07:46:50;;;;;;;12.95;6.90;;;;;;;-145.63;31.35;38400.47;5006901;28;20034;-64
2023/09/23 07:49:16;;;;;;;16.02;7.45;;;;;;;-145.63;32.13;38359.41;5007041;28;20031;-64
2023/09/23 07:51:42;;;;;;;15.60;7.43;;;;;;;-145.63;31.73;38355.50;5026323;28;20636;-63
2023/09/23 07:54:07;;;;;;;14.63;7.28;;;;;;;-145.63;31.29;38316.38;5011203;28;20058;-62
2023/09/23 07:56:33;;;;;;;15.70;6.93;;;;;;;-145.63;32.10;38337.88;5017152;28;20034;-64
2023/09/23 07:58:58;;;;;;;15.25;7.22;;;;;;;-145.63;31.22;38320.28;5020553;28;20318;-65
2023/09/23 08:01:24;;;;;;;16.73;7.22;;;;;;;-145.63;30.74;38382.88;5019414;28;20026;-64
2023/09/23 08:03:51;;;;;;;18.33;8.13;;;;;;;-145.63;30.74;38332.03;5026079;28;20249;-63
2023/09/23 08:06:16;;;;;;;14.40;7.03;;;;;;;-145.63;31.40;38314.44;5009845;28;20030;-64
2023/09/23 08:08:42;;;;;;;12.20;6.60;;;;;;;-145.63;30.07;38300.75;5016666;28;20032;-65
2023/09/23 08:11:07;;;;;;;14.38;6.57;;;;;;;-145.63;30.14;38279.22;5020686;28;20033;-65
2023/09/23 08:13:33;;;;;;;13.25;6.65;;;;;;;-145.63;30.48;38255.78;5030437;28;20022;-65
2023/09/23 08:15:59;;;;;;;14.43;6.32;;;;;;;-145.63;30.00;38265.53;5044018;28;20367;-65
2023/09/23 08:18:25;;;;;;;11.95;5.82;;;;;;;-145.63;28.82;38222.53;5028544;28;20197;-65
2023/09/23 08:21:00;;;;;;;12.50;6.00;;;;;;;-145.63;27.37;38214.72;5013281;28;20054;-65
2023/09/23 08:23:26;;;;;;;15.52;8.93;;;;;;;-145.63;28.50;38173.66;5015188;28;20041;-65
2023/09/23 08:25:54;;;;;;;11.88;5.57;;;;;;;-145.63;27.79;38177.56;5021615;28;20069;-65
2023/09/23 08:28:20;;;;;;;12.30;5.40;;;;;;;-145.63;28.20;38152.16;5006038;28;20095;-64
2023/09/23 08:30:47;;;;;;;17.75;7.40;;;;;;;-145.63;27.72;38116.94;5025889;28;20022;-65
2023/09/23 08:33:13;;;;;;;11.52;5.65;;;;;;;-145.63;28.00;38070.03;5009951;28;20333;-65
2023/09/23 08:35:41;;;;;;;13.55;5.95;;;;;;;-145.63;28.85;38021.16;5017161;28;20037;-63
2023/09/23 08:38:07;;;;;;;10.93;6.30;;;;;;;-145.63;27.79;37995.72;5025172;28;20072;-66
2023/09/23 08:40:38;;;;;;;9.45;5.80;;;;;;;-145.63;27.48;37952.72;5025421;28;20199;-64
2023/09/23 08:43:05;;;;;;;17.52;5.50;;;;;;;-145.63;26.97;37890.16;5025191;28;20328;-64
2023/09/23 08:45:31;;;;;;;18.00;6.20;;;;;;;-145.63;26.10;37720.06;5024697;28;20068;-64
2023/09/23 08:47:58;;;;;;;10.10;5.93;;;;;;;-145.63;25.52;37763.09;5011930;28;20267;-66
2023/09/23 08:50:25;;;;;;;11.57;5.70;;;;;;;-145.63;25.28;37708.34;5014274;28;20025;-65
2023/09/23 08:52:52;;;;;;;11.35;7.07;;;;;;;-145.63;25.54;37620.38;5025064;28;20275;-64
2023/09/23 08:55:19;;;;;;;11.30;5.53;;;;;;;-145.63;24.50;37577.38;5025448;28;20026;-64
2023/09/23 08:57:45;;;;;;;12.48;5.78;;;;;;;-145.63;24.14;37538.25;5025554;28;20064;-65
2023/09/23 09:00:13;;;;;;;11.73;5.95;;;;;;;-145.63;23.91;37542.19;5016314;28;20021;-65
2023/09/23 09:02:39;;;;;;;11.07;5.70;;;;;;;-145.63;23.66;37503.09;5045189;28;20248;-64
2023/09/23 09:05:05;;;;;;;10.02;5.00;;;;;;;-145.63;22.96;37444.44;5038775;28;20033;-65
2023/09/23 09:07:35;;;;;;;7.63;5.25;;;;;;;-145.63;22.71;37467.91;5019300;28;20026;-66
2023/09/23 09:10:02;;;;;;;11.20;6.07;;;;;;;-145.63;23.00;37473.75;5021601;28;20175;-64
2023/09/23 09:12:31;;;;;;;9.27;5.35;;;;;;;-145.63;23.09;37372.09;5007430;28;20042;-64
2023/09/23 09:14:57;;;;;;;8.73;5.13;;;;;;;-145.63;22.59;37417.06;5016311;28;20056;-63
2023/09/23 09:17:23;;;;;;;12.80;4.38;;;;;;;-145.63;22.06;37450.31;5016459;28;20226;-65
2023/09/23 09:19:49;;;;;;;15.02;5.05;;;;;;;-145.63;22.81;37430.75;5008442;28;20088;-65
2023/09/23 09:22:16;;;;;;;10.13;4.50;;;;;;;-145.63;22.38;37454.22;5041832;28;20025;-64
2023/09/23 09:24:42;;;;;;;8.05;4.95;;;;;;;-145.63;22.92;37417.06;5025339;28;20105;-64
2023/09/23 09:27:14;;;;;;;9.80;4.65;;;;;;;-145.63;22.23;37475.72;5010062;28;20050;-64
2023/09/23 09:29:41;;;;;;;8.98;4.60;;;;;;;-145.63;22.29;37473.75;5013768;28;20057;-64
2023/09/23 09:32:10;;;;;;;10.23;4.70;;;;;;;-145.63;22.94;37471.81;5030630;28;20021;-63
2023/09/23 09:34:47;;;;;;;9.02;4.90;;;;;;;-145.63;22.83;37557.81;5022452;28;20096;-64
2023/09/23 09:37:14;;;;;;;13.60;5.35;;;;;;;-145.63;23.03;37581.28;5004795;28;20034;-64
2023/09/23 09:39:55;;;;;;;10.27;5.30;;;;;;;-145.63;23.43;37624.28;5020762;28;20036;-63
2023/09/23 09:42:28;;;;;;;8.25;5.32;;;;;;;-145.63;23.55;37634.06;5020410;28;20305;-63
2023/09/23 09:44:55;;;;;;;9.75;4.82;;;;;;;-145.63;23.91;37278.28;5024080;28;20191;-64
2023/09/23 09:47:22;;;;;;;10.75;4.57;;;;;;;-145.63;24.11;37634.06;5016816;28;20061;-65
2023/09/23 09:49:54;;;;;;;5.40;4.57;;;;;;;-145.63;23.15;37723.97;5007757;28;20029;-64
2023/09/23 09:52:22;;;;;;;8.45;5.80;;;;;;;-145.63;23.12;37675.09;5024574;28;20021;-66
2023/09/23 09:54:53;;;;;;;7.70;4.28;;;;;;;-145.63;22.87;37651.66;5024164;28;20022;-65
2023/09/23 09:57:23;;;;;;;9.30;6.70;;;;;;;-145.63;22.85;37684.88;5007918;28;20341;-65
2023/09/23 09:59:53;;;;;;;8.48;4.25;;;;;;;-145.63;22.68;37671.19;5004093;28;20022;-65
2023/09/23 10:02:21;;;;;;;5.25;4.28;;;;;;;-145.63;22.78;37710.31;5004502;28;20380;-66
2023/09/23 10:04:49;;;;;;;8.82;4.63;;;;;;;-145.63;22.87;37702.47;5006135;28;20084;-64
2023/09/23 10:07:16;;;;;;;6.15;4.03;;;;;;;-145.63;23.19;37682.94;5024099;28;20029;-64
2023/09/23 10:09:55;;;;;;;7.78;4.50;;;;;;;-145.63;21.96;37731.81;5005528;28;20097;-66
2023/09/23 10:12:25;;;;;;;6.38;3.85;;;;;;;-145.63;22.38;37702.47;5028741;28;20310;-65
2023/09/23 10:14:55;;;;;;;6.70;3.95;;;;;;;-145.63;22.79;37708.34;5031863;28;20037;-65
2023/09/23 10:17:30;;;;;;;7.03;4.18;;;;;;;-145.63;22.34;37718.13;5016740;28;20050;-65
2023/09/23 10:19:57;;;;;;;10.52;4.00;;;;;;;-145.63;22.03;37725.94;5007671;28;20041;-65
2023/09/23 10:22:23;;;;;;;9.10;5.20;;;;;;;-145.63;22.09;37749.41;5023750;28;20056;-66
2023/09/23 10:25:06;;;;;;;6.82;4.28;;;;;;;-145.63;22.07;37741.56;5004012;28;20028;-64
2023/09/23 10:27:33;;;;;;;6.95;4.60;;;;;;;-145.63;22.73;37767.00;5020692;28;20104;-65
2023/09/23 10:30:00;;;;;;;7.05;4.30;;;;;;;-145.63;22.90;37731.81;5011298;28;20065;-64
2023/09/23 10:32:26;;;;;;;7.10;4.25;;;;;;;-145.63;22.43;37743.53;5003882;28;20026;-66
2023/09/23 10:34:55;;;;;;;13.63;7.18;;;;;;;-145.63;22.10;37765.03;5007188;28;20029;-65
2023/09/23 10:37:34;;;;;;;13.82;4.50;;;;;;;-145.63;22.23;37698.56;5023301;28;20290;-65
2023/09/23 10:40:12;;;;;;;12.05;4.57;;;;;;;-145.63;21.65;37755.25;5003754;28;20022;-65
2023/09/23 10:42:40;;;;;;;11.85;4.55;;;;;;;-145.63;21.96;37745.50;5021480;28;20026;-64
2023/09/23 10:45:08;;;;;;;8.30;4.13;;;;;;;-145.63;22.02;37735.72;5022180;28;20026;-65
2023/09/23 10:47:35;;;;;;;7.82;4.15;;;;;;;-145.63;21.87;37745.50;5014505;28;20034;-63
2023/09/23 10:50:08;;;;;;;8.93;4.28;;;;;;;-145.63;22.06;37731.81;5008001;28;20298;-63
2023/09/23 10:52:34;;;;;;;10.27;4.30;;;;;;;-145.63;22.05;37725.94;5022647;28;20037;-64
2023/09/23 10:55:00;;;;;;;5.00;4.10;;;;;;;-145.63;21.72;37753.31;5003550;28;20026;-64
2023/09/23 10:57:27;;;;;;;6.20;4.15;;;;;;;-145.63;21.97;37722.03;5019663;28;20202;-64
2023/09/23 10:59:53;;;;;;;7.30;4.40;;;;;;;-145.63;22.25;37745.50;5011161;28;20341;-65
2023/09/23 11:02:20;;;;;;;7.70;4.57;;;;;;;-145.63;21.75;37700.53;5023315;28;20253;-64
2023/09/23 11:04:49;;;;;;;5.13;4.60;;;;;;;-145.63;22.47;37718.13;5020708;28;20288;-64
2023/09/23 11:07:16;;;;;;;9.13;4.40;;;;;;;-145.63;21.91;37706.38;5003544;28;20101;-65